sensor_id;sensor_type;location;lat;lon;timestamp;temperature;humidity
9816;DHT22;4947;44.526;11.360;2023-03-22T00:01:52;10.70;99.90
9816;DHT22;4947;44.526;11.360;2023-03-22T00:04:20;10.70;99.90
9816;DHT22;4947;44.526;11.360;2023-03-22T00:06:48;10.70;99.90
9816;DHT22;4947;44.526;11.360;2023-03-22T00:09:15;10.70;99.90
9816;DHT22;4947;44.526;11.360;2023-03-22T00:11:43;10.60;99.90
9816;DHT22;4947;44.526;11.360;2023-03-22T00:14:10;10.50;99.90
9816;DHT22;4947;44.526;11.360;2023-03-22T00:16:38;10.50;99.90
9816;DHT22;4947;44.526;11.360;2023-03-22T00:19:07;10.50;99.90
9816;DHT22;4947;44.526;11.360;2023-03-22T00:21:35;10.50;99.90
9816;DHT22;4947;44.526;11.360;2023-03-22T00:24:03;10.50;99.90
9816;DHT22;4947;44.526;11.360;2023-03-22T00:26:32;10.50;99.90
9816;DHT22;4947;44.526;11.360;2023-03-22T00:28:59;10.50;99.90
9816;DHT22;4947;44.526;11.360;2023-03-22T00:31:27;10.50;99.90
9816;DHT22;4947;44.526;11.360;2023-03-22T00:33:55;10.40;99.90
9816;DHT22;4947;44.526;11.360;2023-03-22T00:36:24;10.30;99.90
9816;DHT22;4947;44.526;11.360;2023-03-22T00:38:52;10.30;99.90
9816;DHT22;4947;44.526;11.360;2023-03-22T00:41:21;10.10;99.90
9816;DHT22;4947;44.526;11.360;2023-03-22T00:43:50;10.10;99.90
9816;DHT22;4947;44.526;11.360;2023-03-22T00:46:19;10.10;99.90
9816;DHT22;4947;44.526;11.360;2023-03-22T00:48:47;10.20;99.90
9816;DHT22;4947;44.526;11.360;2023-03-22T00:51:15;10.20;99.90
9816;DHT22;4947;44.526;11.360;2023-03-22T00:53:44;10.20;99.90
9816;DHT22;4947;44.526;11.360;2023-03-22T00:56:14;10.10;99.90
9816;DHT22;4947;44.526;11.360;2023-03-22T00:58:42;10.10;99.90
9816;DHT22;4947;44.526;11.360;2023-03-22T01:01:10;10.10;99.90
9816;DHT22;4947;44.526;11.360;2023-03-22T01:03:40;10.10;99.90
9816;DHT22;4947;44.526;11.360;2023-03-22T01:06:08;10.10;99.90
9816;DHT22;4947;44.526;11.360;2023-03-22T01:08:36;10.10;99.90
9816;DHT22;4947;44.526;11.360;2023-03-22T01:11:06;10.10;99.90
9816;DHT22;4947;44.526;11.360;2023-03-22T01:13:34;10.10;99.90
9816;DHT22;4947;44.526;11.360;2023-03-22T01:16:04;10.00;99.90
9816;DHT22;4947;44.526;11.360;2023-03-22T01:18:31;10.00;99.90
9816;DHT22;4947;44.526;11.360;2023-03-22T01:20:59;10.00;99.90
9816;DHT22;4947;44.526;11.360;2023-03-22T01:23:27;10.00;99.90
9816;DHT22;4947;44.526;11.360;2023-03-22T01:25:55;9.90;99.90
9816;DHT22;4947;44.526;11.360;2023-03-22T01:28:24;10.00;99.90
9816;DHT22;4947;44.526;11.360;2023-03-22T01:30:52;10.00;99.90
9816;DHT22;4947;44.526;11.360;2023-03-22T01:33:20;10.00;99.90
9816;DHT22;4947;44.526;11.360;2023-03-22T01:35:48;9.90;99.90
9816;DHT22;4947;44.526;11.360;2023-03-22T01:38:15;10.00;99.90
9816;DHT22;4947;44.526;11.360;2023-03-22T01:40:43;9.90;99.90
9816;DHT22;4947;44.526;11.360;2023-03-22T01:43:13;9.90;99.90
9816;DHT22;4947;44.526;11.360;2023-03-22T01:45:46;9.80;99.90
9816;DHT22;4947;44.526;11.360;2023-03-22T01:48:18;9.80;99.90
9816;DHT22;4947;44.526;11.360;2023-03-22T01:50:54;9.80;99.90
9816;DHT22;4947;44.526;11.360;2023-03-22T01:53:25;9.80;99.90
9816;DHT22;4947;44.526;11.360;2023-03-22T01:55:53;9.70;99.90
9816;DHT22;4947;44.526;11.360;2023-03-22T01:58:21;9.80;99.90
9816;DHT22;4947;44.526;11.360;2023-03-22T02:00:52;9.80;99.90
9816;DHT22;4947;44.526;11.360;2023-03-22T02:03:27;9.80;99.90
9816;DHT22;4947;44.526;11.360;2023-03-22T02:05:56;9.80;99.90
9816;DHT22;4947;44.526;11.360;2023-03-22T02:08:24;9.80;99.90
9816;DHT22;4947;44.526;11.360;2023-03-22T02:10:53;9.80;99.90
9816;DHT22;4947;44.526;11.360;2023-03-22T02:13:32;9.80;99.90
9816;DHT22;4947;44.526;11.360;2023-03-22T02:16:16;9.90;99.90
9816;DHT22;4947;44.526;11.360;2023-03-22T02:19:01;9.80;99.90
9816;DHT22;4947;44.526;11.360;2023-03-22T02:21:52;9.80;99.90
9816;DHT22;4947;44.526;11.360;2023-03-22T02:24:50;9.80;99.90
9816;DHT22;4947;44.526;11.360;2023-03-22T02:30:37;9.70;99.90
9816;DHT22;4947;44.526;11.360;2023-03-22T02:33:25;9.70;99.90
9816;DHT22;4947;44.526;11.360;2023-03-22T02:36:18;9.70;99.90
9816;DHT22;4947;44.526;11.360;2023-03-22T02:39:13;9.70;99.90
9816;DHT22;4947;44.526;11.360;2023-03-22T02:41:50;9.70;99.90
9816;DHT22;4947;44.526;11.360;2023-03-22T02:44:25;9.70;99.90
9816;DHT22;4947;44.526;11.360;2023-03-22T02:46:59;9.80;99.90
9816;DHT22;4947;44.526;11.360;2023-03-22T02:49:33;9.70;99.90
9816;DHT22;4947;44.526;11.360;2023-03-22T02:52:08;9.70;99.90
9816;DHT22;4947;44.526;11.360;2023-03-22T02:54:43;9.70;99.90
9816;DHT22;4947;44.526;11.360;2023-03-22T02:57:19;9.70;99.90
9816;DHT22;4947;44.526;11.360;2023-03-22T02:59:49;9.70;99.90
9816;DHT22;4947;44.526;11.360;2023-03-22T03:02:18;9.70;99.90
9816;DHT22;4947;44.526;11.360;2023-03-22T03:04:49;9.70;99.90
9816;DHT22;4947;44.526;11.360;2023-03-22T03:07:20;9.80;99.90
9816;DHT22;4947;44.526;11.360;2023-03-22T03:09:50;9.80;99.90
9816;DHT22;4947;44.526;11.360;2023-03-22T03:12:21;9.80;99.90
9816;DHT22;4947;44.526;11.360;2023-03-22T03:14:49;9.70;99.90
9816;DHT22;4947;44.526;11.360;2023-03-22T03:17:25;9.70;99.90
9816;DHT22;4947;44.526;11.360;2023-03-22T03:20:06;9.70;99.90
9816;DHT22;4947;44.526;11.360;2023-03-22T03:22:43;9.80;99.90
9816;DHT22;4947;44.526;11.360;2023-03-22T03:25:23;9.80;99.90
9816;DHT22;4947;44.526;11.360;2023-03-22T03:27:59;9.80;99.90
9816;DHT22;4947;44.526;11.360;2023-03-22T03:30:31;9.70;99.90
9816;DHT22;4947;44.526;11.360;2023-03-22T03:33:06;9.80;99.90
9816;DHT22;4947;44.526;11.360;2023-03-22T03:35:38;9.80;99.90
9816;DHT22;4947;44.526;11.360;2023-03-22T03:38:09;9.80;99.90
9816;DHT22;4947;44.526;11.360;2023-03-22T03:40:42;9.80;99.90
9816;DHT22;4947;44.526;11.360;2023-03-22T03:43:11;9.70;99.90
9816;DHT22;4947;44.526;11.360;2023-03-22T03:45:40;9.70;99.90
9816;DHT22;4947;44.526;11.360;2023-03-22T03:48:10;9.80;99.90
9816;DHT22;4947;44.526;11.360;2023-03-22T03:50:41;9.70;99.90
9816;DHT22;4947;44.526;11.360;2023-03-22T03:53:08;9.70;99.90
9816;DHT22;4947;44.526;11.360;2023-03-22T03:55:36;9.70;99.90
9816;DHT22;4947;44.526;11.360;2023-03-22T03:58:05;9.70;99.90
9816;DHT22;4947;44.526;11.360;2023-03-22T04:00:33;9.60;99.90
9816;DHT22;4947;44.526;11.360;2023-03-22T04:03:01;9.50;99.90
9816;DHT22;4947;44.526;11.360;2023-03-22T04:05:29;9.50;99.90
9816;DHT22;4947;44.526;11.360;2023-03-22T04:07:57;9.50;99.90
9816;DHT22;4947;44.526;11.360;2023-03-22T04:10:24;9.60;99.90
9816;DHT22;4947;44.526;11.360;2023-03-22T04:12:52;9.60;99.90
9816;DHT22;4947;44.526;11.360;2023-03-22T04:15:21;9.50;99.90
9816;DHT22;4947;44.526;11.360;2023-03-22T04:17:49;9.50;99.90
9816;DHT22;4947;44.526;11.360;2023-03-22T04:20:18;9.60;99.90
9816;DHT22;4947;44.526;11.360;2023-03-22T04:22:45;9.70;99.90
9816;DHT22;4947;44.526;11.360;2023-03-22T04:25:15;9.70;99.90
9816;DHT22;4947;44.526;11.360;2023-03-22T04:27:45;9.70;99.90
9816;DHT22;4947;44.526;11.360;2023-03-22T04:30:16;9.70;99.90
9816;DHT22;4947;44.526;11.360;2023-03-22T04:32:46;9.70;99.90
9816;DHT22;4947;44.526;11.360;2023-03-22T04:35:14;9.70;99.90
9816;DHT22;4947;44.526;11.360;2023-03-22T04:37:42;9.70;99.90
9816;DHT22;4947;44.526;11.360;2023-03-22T04:40:10;9.80;99.90
9816;DHT22;4947;44.526;11.360;2023-03-22T04:42:41;9.80;99.90
9816;DHT22;4947;44.526;11.360;2023-03-22T04:45:10;9.80;99.90
9816;DHT22;4947;44.526;11.360;2023-03-22T04:47:38;9.80;99.90
9816;DHT22;4947;44.526;11.360;2023-03-22T04:50:11;9.90;99.90
9816;DHT22;4947;44.526;11.360;2023-03-22T04:52:38;9.80;99.90
9816;DHT22;4947;44.526;11.360;2023-03-22T04:55:07;9.80;99.90
9816;DHT22;4947;44.526;11.360;2023-03-22T04:57:34;9.80;99.90
9816;DHT22;4947;44.526;11.360;2023-03-22T05:00:03;9.80;99.90
9816;DHT22;4947;44.526;11.360;2023-03-22T05:02:33;9.80;99.90
9816;DHT22;4947;44.526;11.360;2023-03-22T05:05:02;9.70;99.90
9816;DHT22;4947;44.526;11.360;2023-03-22T05:07:32;9.70;99.90
9816;DHT22;4947;44.526;11.360;2023-03-22T05:09:59;9.80;99.90
9816;DHT22;4947;44.526;11.360;2023-03-22T05:12:26;9.80;99.90
9816;DHT22;4947;44.526;11.360;2023-03-22T05:14:54;9.70;99.90
9816;DHT22;4947;44.526;11.360;2023-03-22T05:17:22;9.70;99.90
9816;DHT22;4947;44.526;11.360;2023-03-22T05:19:49;9.80;99.90
9816;DHT22;4947;44.526;11.360;2023-03-22T05:22:16;9.80;99.90
9816;DHT22;4947;44.526;11.360;2023-03-22T05:24:49;9.80;99.90
9816;DHT22;4947;44.526;11.360;2023-03-22T05:27:17;9.70;99.90
9816;DHT22;4947;44.526;11.360;2023-03-22T05:29:55;9.70;99.90
9816;DHT22;4947;44.526;11.360;2023-03-22T05:32:23;9.70;99.90
9816;DHT22;4947;44.526;11.360;2023-03-22T05:34:53;9.70;99.90
9816;DHT22;4947;44.526;11.360;2023-03-22T05:37:21;9.60;99.90
9816;DHT22;4947;44.526;11.360;2023-03-22T05:39:50;9.60;99.90
9816;DHT22;4947;44.526;11.360;2023-03-22T05:42:18;9.60;99.90
9816;DHT22;4947;44.526;11.360;2023-03-22T05:44:46;9.70;99.90
9816;DHT22;4947;44.526;11.360;2023-03-22T05:47:14;9.70;99.90
9816;DHT22;4947;44.526;11.360;2023-03-22T05:49:41;9.80;99.90
9816;DHT22;4947;44.526;11.360;2023-03-22T05:52:09;9.80;99.90
9816;DHT22;4947;44.526;11.360;2023-03-22T05:54:37;9.90;99.90
9816;DHT22;4947;44.526;11.360;2023-03-22T05:57:06;9.90;99.90
9816;DHT22;4947;44.526;11.360;2023-03-22T05:59:34;10.00;99.90
9816;DHT22;4947;44.526;11.360;2023-03-22T06:02:01;10.10;99.90
9816;DHT22;4947;44.526;11.360;2023-03-22T06:04:29;10.00;99.90
9816;DHT22;4947;44.526;11.360;2023-03-22T06:06:56;10.10;99.90
9816;DHT22;4947;44.526;11.360;2023-03-22T06:09:24;10.30;99.90
9816;DHT22;4947;44.526;11.360;2023-03-22T06:11:52;10.40;99.90
9816;DHT22;4947;44.526;11.360;2023-03-22T06:14:21;10.60;99.90
9816;DHT22;4947;44.526;11.360;2023-03-22T06:16:49;10.70;99.90
9816;DHT22;4947;44.526;11.360;2023-03-22T06:19:19;10.90;99.90
9816;DHT22;4947;44.526;11.360;2023-03-22T06:21:47;11.10;99.90
9816;DHT22;4947;44.526;11.360;2023-03-22T06:24:14;11.30;99.90
9816;DHT22;4947;44.526;11.360;2023-03-22T06:26:42;11.50;99.90
9816;DHT22;4947;44.526;11.360;2023-03-22T06:29:09;11.60;99.90
9816;DHT22;4947;44.526;11.360;2023-03-22T06:31:38;11.80;99.90
9816;DHT22;4947;44.526;11.360;2023-03-22T06:34:06;12.00;99.90
9816;DHT22;4947;44.526;11.360;2023-03-22T06:36:33;12.10;99.90
9816;DHT22;4947;44.526;11.360;2023-03-22T06:39:01;12.20;99.90
9816;DHT22;4947;44.526;11.360;2023-03-22T06:41:29;12.30;99.90
9816;DHT22;4947;44.526;11.360;2023-03-22T06:43:57;12.50;99.90
9816;DHT22;4947;44.526;11.360;2023-03-22T06:46:27;12.80;99.90
9816;DHT22;4947;44.526;11.360;2023-03-22T06:48:56;12.80;99.90
9816;DHT22;4947;44.526;11.360;2023-03-22T06:51:24;12.90;99.90
9816;DHT22;4947;44.526;11.360;2023-03-22T06:53:51;13.20;99.90
9816;DHT22;4947;44.526;11.360;2023-03-22T06:56:19;13.40;99.90
9816;DHT22;4947;44.526;11.360;2023-03-22T06:58:47;13.70;99.90
9816;DHT22;4947;44.526;11.360;2023-03-22T07:01:16;14.00;99.90
9816;DHT22;4947;44.526;11.360;2023-03-22T07:03:43;14.20;99.90
9816;DHT22;4947;44.526;11.360;2023-03-22T07:06:13;14.50;99.90
9816;DHT22;4947;44.526;11.360;2023-03-22T07:08:40;14.80;99.90
9816;DHT22;4947;44.526;11.360;2023-03-22T07:11:08;15.00;99.90
9816;DHT22;4947;44.526;11.360;2023-03-22T07:13:36;15.20;99.90
9816;DHT22;4947;44.526;11.360;2023-03-22T07:16:08;15.60;99.90
9816;DHT22;4947;44.526;11.360;2023-03-22T07:18:36;15.90;99.90
9816;DHT22;4947;44.526;11.360;2023-03-22T07:21:04;16.30;99.90
9816;DHT22;4947;44.526;11.360;2023-03-22T07:23:33;16.60;99.90
9816;DHT22;4947;44.526;11.360;2023-03-22T07:26:01;16.80;99.90
9816;DHT22;4947;44.526;11.360;2023-03-22T07:28:28;17.10;99.90
9816;DHT22;4947;44.526;11.360;2023-03-22T07:31:00;17.00;99.90
9816;DHT22;4947;44.526;11.360;2023-03-22T07:33:28;17.20;99.90
9816;DHT22;4947;44.526;11.360;2023-03-22T07:35:55;17.00;98.90
9816;DHT22;4947;44.526;11.360;2023-03-22T07:38:23;16.90;98.40
9816;DHT22;4947;44.526;11.360;2023-03-22T07:40:53;17.30;99.40
9816;DHT22;4947;44.526;11.360;2023-03-22T07:43:20;17.40;97.00
9816;DHT22;4947;44.526;11.360;2023-03-22T07:45:48;17.50;96.80
9816;DHT22;4947;44.526;11.360;2023-03-22T07:48:16;18.10;96.20
9816;DHT22;4947;44.526;11.360;2023-03-22T07:50:44;18.60;93.50
9816;DHT22;4947;44.526;11.360;2023-03-22T07:53:12;18.70;93.30
9816;DHT22;4947;44.526;11.360;2023-03-22T07:55:39;18.80;94.10
9816;DHT22;4947;44.526;11.360;2023-03-22T07:58:08;19.10;91.80
9816;DHT22;4947;44.526;11.360;2023-03-22T08:00:36;19.60;91.00
9816;DHT22;4947;44.526;11.360;2023-03-22T08:03:03;20.00;89.60
9816;DHT22;4947;44.526;11.360;2023-03-22T08:05:30;20.00;84.70
9816;DHT22;4947;44.526;11.360;2023-03-22T08:07:58;19.80;85.20
9816;DHT22;4947;44.526;11.360;2023-03-22T08:10:26;19.30;89.70
9816;DHT22;4947;44.526;11.360;2023-03-22T08:12:54;19.70;90.10
9816;DHT22;4947;44.526;11.360;2023-03-22T08:15:23;20.10;88.40
9816;DHT22;4947;44.526;11.360;2023-03-22T08:17:51;20.40;80.20
9816;DHT22;4947;44.526;11.360;2023-03-22T08:20:22;20.80;79.50
9816;DHT22;4947;44.526;11.360;2023-03-22T08:22:52;21.10;78.10
9816;DHT22;4947;44.526;11.360;2023-03-22T08:25:20;21.70;75.70
9816;DHT22;4947;44.526;11.360;2023-03-22T08:27:48;22.20;74.10
9816;DHT22;4947;44.526;11.360;2023-03-22T08:30:16;22.00;70.70
9816;DHT22;4947;44.526;11.360;2023-03-22T08:32:46;22.20;70.00
9816;DHT22;4947;44.526;11.360;2023-03-22T08:35:13;22.50;70.20
9816;DHT22;4947;44.526;11.360;2023-03-22T08:37:41;22.80;68.30
9816;DHT22;4947;44.526;11.360;2023-03-22T08:40:09;22.90;68.00
9816;DHT22;4947;44.526;11.360;2023-03-22T08:42:37;23.50;62.10
9816;DHT22;4947;44.526;11.360;2023-03-22T08:45:05;24.40;57.90
9816;DHT22;4947;44.526;11.360;2023-03-22T08:47:34;24.00;57.00
9816;DHT22;4947;44.526;11.360;2023-03-22T08:50:05;23.10;60.90
9816;DHT22;4947;44.526;11.360;2023-03-22T08:52:33;23.10;65.80
9816;DHT22;4947;44.526;11.360;2023-03-22T08:55:01;23.70;63.90
9816;DHT22;4947;44.526;11.360;2023-03-22T08:57:28;24.60;59.70
9816;DHT22;4947;44.526;11.360;2023-03-22T08:59:56;24.20;55.40
9816;DHT22;4947;44.526;11.360;2023-03-22T09:02:24;24.60;56.30
9816;DHT22;4947;44.526;11.360;2023-03-22T09:04:52;25.20;52.70
9816;DHT22;4947;44.526;11.360;2023-03-22T09:07:21;25.00;56.70
9816;DHT22;4947;44.526;11.360;2023-03-22T09:09:49;25.60;55.00
9816;DHT22;4947;44.526;11.360;2023-03-22T09:12:16;24.70;53.90
9816;DHT22;4947;44.526;11.360;2023-03-22T09:14:44;24.30;54.60
9816;DHT22;4947;44.526;11.360;2023-03-22T09:17:12;25.50;57.50
9816;DHT22;4947;44.526;11.360;2023-03-22T09:19:40;26.50;54.20
9816;DHT22;4947;44.526;11.360;2023-03-22T09:22:08;26.70;53.70
9816;DHT22;4947;44.526;11.360;2023-03-22T09:24:37;27.10;52.60
9816;DHT22;4947;44.526;11.360;2023-03-22T09:27:04;26.70;54.00
9816;DHT22;4947;44.526;11.360;2023-03-22T09:29:32;26.80;50.70
9816;DHT22;4947;44.526;11.360;2023-03-22T09:31:59;26.50;51.00
9816;DHT22;4947;44.526;11.360;2023-03-22T09:34:27;26.60;52.00
9816;DHT22;4947;44.526;11.360;2023-03-22T09:36:54;26.50;51.00
9816;DHT22;4947;44.526;11.360;2023-03-22T09:39:25;26.80;50.70
9816;DHT22;4947;44.526;11.360;2023-03-22T09:41:57;26.80;51.50
9816;DHT22;4947;44.526;11.360;2023-03-22T09:44:28;26.90;49.30
9816;DHT22;4947;44.526;11.360;2023-03-22T09:46:59;26.40;51.60
9816;DHT22;4947;44.526;11.360;2023-03-22T09:49:32;25.50;52.20
9816;DHT22;4947;44.526;11.360;2023-03-22T09:52:00;25.30;53.80
9816;DHT22;4947;44.526;11.360;2023-03-22T09:54:31;25.30;55.80
9816;DHT22;4947;44.526;11.360;2023-03-22T09:57:04;25.10;57.70
9816;DHT22;4947;44.526;11.360;2023-03-22T09:59:39;24.40;58.20
9816;DHT22;4947;44.526;11.360;2023-03-22T10:02:31;24.10;57.90
9816;DHT22;4947;44.526;11.360;2023-03-22T10:05:08;23.50;60.80
9816;DHT22;4947;44.526;11.360;2023-03-22T10:07:53;22.90;62.50
9816;DHT22;4947;44.526;11.360;2023-03-22T10:10:23;22.50;65.30
9816;DHT22;4947;44.526;11.360;2023-03-22T10:12:56;22.40;67.00
9816;DHT22;4947;44.526;11.360;2023-03-22T10:15:29;22.40;69.00
9816;DHT22;4947;44.526;11.360;2023-03-22T10:18:00;22.00;74.20
9816;DHT22;4947;44.526;11.360;2023-03-22T10:20:32;21.70;79.00
9816;DHT22;4947;44.526;11.360;2023-03-22T10:23:05;21.70;74.70
9816;DHT22;4947;44.526;11.360;2023-03-22T10:25:37;21.40;67.30
9816;DHT22;4947;44.526;11.360;2023-03-22T10:28:14;21.30;78.90
9816;DHT22;4947;44.526;11.360;2023-03-22T10:30:43;21.20;75.20
9816;DHT22;4947;44.526;11.360;2023-03-22T10:33:19;21.20;74.70
9816;DHT22;4947;44.526;11.360;2023-03-22T10:35:49;21.00;80.90
9816;DHT22;4947;44.526;11.360;2023-03-22T10:38:21;20.70;80.10
9816;DHT22;4947;44.526;11.360;2023-03-22T10:40:51;20.40;83.80
9816;DHT22;4947;44.526;11.360;2023-03-22T10:43:24;20.50;86.80
9816;DHT22;4947;44.526;11.360;2023-03-22T10:45:54;20.30;89.40
9816;DHT22;4947;44.526;11.360;2023-03-22T10:48:26;20.30;87.90
9816;DHT22;4947;44.526;11.360;2023-03-22T10:50:56;20.30;82.30
9816;DHT22;4947;44.526;11.360;2023-03-22T10:53:29;20.30;81.50
9816;DHT22;4947;44.526;11.360;2023-03-22T10:55:59;20.30;90.10
9816;DHT22;4947;44.526;11.360;2023-03-22T10:58:37;20.30;77.60
9816;DHT22;4947;44.526;11.360;2023-03-22T11:01:07;20.30;75.00
9816;DHT22;4947;44.526;11.360;2023-03-22T11:03:39;20.30;71.90
9816;DHT22;4947;44.526;11.360;2023-03-22T11:06:10;20.40;74.50
9816;DHT22;4947;44.526;11.360;2023-03-22T11:08:40;20.30;76.60
9816;DHT22;4947;44.526;11.360;2023-03-22T11:11:15;20.40;79.60
9816;DHT22;4947;44.526;11.360;2023-03-22T11:13:53;20.30;78.50
9816;DHT22;4947;44.526;11.360;2023-03-22T11:16:22;20.30;79.00
9816;DHT22;4947;44.526;11.360;2023-03-22T11:18:49;20.30;83.90
9816;DHT22;4947;44.526;11.360;2023-03-22T11:21:17;20.30;86.40
9816;DHT22;4947;44.526;11.360;2023-03-22T11:23:53;20.40;83.10
9816;DHT22;4947;44.526;11.360;2023-03-22T11:26:27;20.40;82.90
9816;DHT22;4947;44.526;11.360;2023-03-22T11:29:04;20.40;73.70
9816;DHT22;4947;44.526;11.360;2023-03-22T11:31:48;20.30;71.00
9816;DHT22;4947;44.526;11.360;2023-03-22T11:34:19;20.50;73.60
9816;DHT22;4947;44.526;11.360;2023-03-22T11:36:47;20.40;77.40
9816;DHT22;4947;44.526;11.360;2023-03-22T11:39:22;20.40;81.60
9816;DHT22;4947;44.526;11.360;2023-03-22T11:41:50;20.40;75.80
9816;DHT22;4947;44.526;11.360;2023-03-22T11:44:21;20.40;77.20
9816;DHT22;4947;44.526;11.360;2023-03-22T11:46:52;20.40;77.40
9816;DHT22;4947;44.526;11.360;2023-03-22T11:49:24;20.40;78.00
9816;DHT22;4947;44.526;11.360;2023-03-22T11:51:53;20.30;85.00
9816;DHT22;4947;44.526;11.360;2023-03-22T11:54:26;20.30;77.90
9816;DHT22;4947;44.526;11.360;2023-03-22T11:56:57;20.30;76.90
9816;DHT22;4947;44.526;11.360;2023-03-22T11:59:29;20.30;79.60
9816;DHT22;4947;44.526;11.360;2023-03-22T12:02:01;20.30;80.10
9816;DHT22;4947;44.526;11.360;2023-03-22T12:04:34;20.30;76.30
9816;DHT22;4947;44.526;11.360;2023-03-22T12:07:10;20.30;72.60
9816;DHT22;4947;44.526;11.360;2023-03-22T12:09:43;20.40;74.10
9816;DHT22;4947;44.526;11.360;2023-03-22T12:12:14;20.30;71.60
9816;DHT22;4947;44.526;11.360;2023-03-22T12:14:56;20.40;75.40
9816;DHT22;4947;44.526;11.360;2023-03-22T12:17:31;20.40;76.20
9816;DHT22;4947;44.526;11.360;2023-03-22T12:20:04;20.40;72.40
9816;DHT22;4947;44.526;11.360;2023-03-22T12:22:34;20.40;76.50
9816;DHT22;4947;44.526;11.360;2023-03-22T12:25:11;20.50;77.90
9816;DHT22;4947;44.526;11.360;2023-03-22T12:27:40;20.40;73.50
9816;DHT22;4947;44.526;11.360;2023-03-22T12:30:18;20.50;73.50
9816;DHT22;4947;44.526;11.360;2023-03-22T12:32:48;20.50;76.40
9816;DHT22;4947;44.526;11.360;2023-03-22T12:35:20;20.50;77.00
9816;DHT22;4947;44.526;11.360;2023-03-22T12:37:51;20.50;73.50
9816;DHT22;4947;44.526;11.360;2023-03-22T12:40:23;20.50;73.20
9816;DHT22;4947;44.526;11.360;2023-03-22T12:42:58;20.30;65.30
9816;DHT22;4947;44.526;11.360;2023-03-22T12:45:30;20.30;65.00
9816;DHT22;4947;44.526;11.360;2023-03-22T12:48:05;20.30;64.20
9816;DHT22;4947;44.526;11.360;2023-03-22T12:50:37;20.40;63.50
9816;DHT22;4947;44.526;11.360;2023-03-22T12:53:08;20.40;65.50
9816;DHT22;4947;44.526;11.360;2023-03-22T12:55:38;20.50;64.90
9816;DHT22;4947;44.526;11.360;2023-03-22T12:58:06;20.60;64.50
9816;DHT22;4947;44.526;11.360;2023-03-22T13:00:39;20.60;67.00
9816;DHT22;4947;44.526;11.360;2023-03-22T13:03:22;20.60;67.70
9816;DHT22;4947;44.526;11.360;2023-03-22T13:06:00;20.60;64.40
9816;DHT22;4947;44.526;11.360;2023-03-22T13:11:27;20.50;61.40
9816;DHT22;4947;44.526;11.360;2023-03-22T13:13:54;20.50;66.80
9816;DHT22;4947;44.526;11.360;2023-03-22T13:16:43;20.50;71.10
9816;DHT22;4947;44.526;11.360;2023-03-22T13:19:26;20.60;66.30
9816;DHT22;4947;44.526;11.360;2023-03-22T13:22:18;20.70;65.50
9816;DHT22;4947;44.526;11.360;2023-03-22T13:25:12;20.70;67.80
9816;DHT22;4947;44.526;11.360;2023-03-22T13:27:50;20.70;73.80
9816;DHT22;4947;44.526;11.360;2023-03-22T13:30:22;20.70;64.50
9816;DHT22;4947;44.526;11.360;2023-03-22T13:32:53;20.60;70.30
9816;DHT22;4947;44.526;11.360;2023-03-22T13:35:23;20.70;72.90
9816;DHT22;4947;44.526;11.360;2023-03-22T13:37:54;20.60;70.50
9816;DHT22;4947;44.526;11.360;2023-03-22T13:40:27;20.80;68.20
9816;DHT22;4947;44.526;11.360;2023-03-22T13:43:12;20.80;67.40
9816;DHT22;4947;44.526;11.360;2023-03-22T13:46:09;20.80;67.80
9816;DHT22;4947;44.526;11.360;2023-03-22T13:48:51;20.70;69.30
9816;DHT22;4947;44.526;11.360;2023-03-22T13:51:25;20.70;68.20
9816;DHT22;4947;44.526;11.360;2023-03-22T13:53:58;20.70;68.10
9816;DHT22;4947;44.526;11.360;2023-03-22T13:56:33;20.80;71.10
9816;DHT22;4947;44.526;11.360;2023-03-22T13:59:01;20.80;66.40
9816;DHT22;4947;44.526;11.360;2023-03-22T14:01:32;20.90;65.60
9816;DHT22;4947;44.526;11.360;2023-03-22T14:04:06;20.90;67.10
9816;DHT22;4947;44.526;11.360;2023-03-22T14:06:41;20.80;64.30
9816;DHT22;4947;44.526;11.360;2023-03-22T14:09:22;20.80;62.40
9816;DHT22;4947;44.526;11.360;2023-03-22T14:11:56;20.90;65.40
9816;DHT22;4947;44.526;11.360;2023-03-22T14:14:30;21.00;65.20
9816;DHT22;4947;44.526;11.360;2023-03-22T14:17:02;21.00;65.50
9816;DHT22;4947;44.526;11.360;2023-03-22T14:19:33;20.90;65.40
9816;DHT22;4947;44.526;11.360;2023-03-22T14:22:04;20.90;67.20
9816;DHT22;4947;44.526;11.360;2023-03-22T14:24:34;20.80;63.70
9816;DHT22;4947;44.526;11.360;2023-03-22T14:27:03;20.80;64.70
9816;DHT22;4947;44.526;11.360;2023-03-22T14:29:41;20.90;63.20
9816;DHT22;4947;44.526;11.360;2023-03-22T14:32:14;20.80;59.90
9816;DHT22;4947;44.526;11.360;2023-03-22T14:34:47;20.90;60.00
9816;DHT22;4947;44.526;11.360;2023-03-22T14:37:15;20.90;63.30
9816;DHT22;4947;44.526;11.360;2023-03-22T14:39:45;20.80;62.40
9816;DHT22;4947;44.526;11.360;2023-03-22T14:42:17;20.90;60.00
9816;DHT22;4947;44.526;11.360;2023-03-22T14:44:51;20.80;60.30
9816;DHT22;4947;44.526;11.360;2023-03-22T14:47:21;20.80;63.10
9816;DHT22;4947;44.526;11.360;2023-03-22T14:49:53;20.70;62.60
9816;DHT22;4947;44.526;11.360;2023-03-22T14:52:23;20.80;65.60
9816;DHT22;4947;44.526;11.360;2023-03-22T14:54:53;20.90;65.00
9816;DHT22;4947;44.526;11.360;2023-03-22T14:57:25;20.90;63.60
9816;DHT22;4947;44.526;11.360;2023-03-22T14:59:54;20.80;62.80
9816;DHT22;4947;44.526;11.360;2023-03-22T15:02:47;20.80;63.40
9816;DHT22;4947;44.526;11.360;2023-03-22T15:05:19;20.80;62.40
9816;DHT22;4947;44.526;11.360;2023-03-22T15:07:48;20.80;63.00
9816;DHT22;4947;44.526;11.360;2023-03-22T15:10:18;20.80;61.60
9816;DHT22;4947;44.526;11.360;2023-03-22T15:12:48;20.80;60.20
9816;DHT22;4947;44.526;11.360;2023-03-22T15:15:18;20.80;61.60
9816;DHT22;4947;44.526;11.360;2023-03-22T15:17:46;20.80;60.00
9816;DHT22;4947;44.526;11.360;2023-03-22T15:20:18;20.90;57.80
9816;DHT22;4947;44.526;11.360;2023-03-22T15:22:52;20.90;60.00
9816;DHT22;4947;44.526;11.360;2023-03-22T15:25:26;20.90;62.10
9816;DHT22;4947;44.526;11.360;2023-03-22T15:27:55;20.80;62.10
9816;DHT22;4947;44.526;11.360;2023-03-22T15:30:23;20.80;59.30
9816;DHT22;4947;44.526;11.360;2023-03-22T15:32:51;20.80;55.20
9816;DHT22;4947;44.526;11.360;2023-03-22T15:35:20;20.80;57.50
9816;DHT22;4947;44.526;11.360;2023-03-22T15:37:51;20.70;59.30
9816;DHT22;4947;44.526;11.360;2023-03-22T15:40:43;20.70;58.40
9816;DHT22;4947;44.526;11.360;2023-03-22T15:43:16;20.70;58.40
9816;DHT22;4947;44.526;11.360;2023-03-22T15:46:14;20.70;58.60
9816;DHT22;4947;44.526;11.360;2023-03-22T15:48:45;20.60;57.30
9816;DHT22;4947;44.526;11.360;2023-03-22T15:51:17;20.70;58.10
9816;DHT22;4947;44.526;11.360;2023-03-22T15:53:48;20.60;58.00
9816;DHT22;4947;44.526;11.360;2023-03-22T15:56:25;20.60;58.40
9816;DHT22;4947;44.526;11.360;2023-03-22T15:58:56;20.50;59.10
9816;DHT22;4947;44.526;11.360;2023-03-22T16:01:25;20.50;59.10
9816;DHT22;4947;44.526;11.360;2023-03-22T16:03:54;20.40;56.50
9816;DHT22;4947;44.526;11.360;2023-03-22T16:06:24;20.40;57.00
9816;DHT22;4947;44.526;11.360;2023-03-22T16:08:52;20.30;57.10
9816;DHT22;4947;44.526;11.360;2023-03-22T16:11:23;20.30;56.80
9816;DHT22;4947;44.526;11.360;2023-03-22T16:13:55;20.20;57.50
9816;DHT22;4947;44.526;11.360;2023-03-22T16:16:25;20.20;58.80
9816;DHT22;4947;44.526;11.360;2023-03-22T16:18:53;20.20;58.30
9816;DHT22;4947;44.526;11.360;2023-03-22T16:21:28;20.20;59.00